Time;durP1;ratioP1;P1;durP2;ratioP2;P2;SDS_P1;SDS_P2;PMS_P1;PMS_P2;Temp;Humidity;BMP_temperature;BMP_pressure;BME280_temperature;BME280_humidity;BME280_pressure;Samples;Min_cycle;Max_cycle;Signal;HPM_P1;HPM_P2
2023/06/25 00:02:13;;;;;;;;;;;;;;;;;;4361488;32;66941;-57
2023/06/25 00:04:53;;;;;;;4.57;2.65;;;;;;;;;;3847533;37;43501;-58
2023/06/25 00:07:43;;;;;;;4.35;2.58;;;;;;;;;;4398829;32;59986;-58
2023/06/25 00:10:29;;;;;;;6.37;2.75;;;;;;;;;;4398708;32;70049;-58
2023/06/25 00:13:16;;;;;;;3.37;1.73;;;;;;;;;;4409824;32;69338;-59
2023/06/25 00:16:03;;;;;;;3.17;2.10;;;;;;;;;;4387661;32;67846;-58
2023/06/25 00:18:50;;;;;;;3.15;1.87;;;;;;;;;;4388129;32;71317;-58
2023/06/25 00:21:37;;;;;;;2.50;1.80;;;;;;;;;;4398441;32;66740;-58
2023/06/25 00:24:24;;;;;;;5.03;3.00;;;;;;;;;;4398933;32;66425;-58
2023/06/25 00:27:11;;;;;;;5.60;2.72;;;;;;;;;;4398445;32;59683;-59
2023/06/25 00:30:00;;;;;;;;;;;;;;;;;;4400448;32;70660;-59
2023/06/25 00:32:46;;;;;;;3.90;2.55;;;;;;;;;;4399993;32;65529;-58
2023/06/25 00:35:51;;;;;;;5.20;2.97;;;;;;;;;;4387634;32;68131;-58
2023/06/25 00:38:39;;;;;;;3.72;2.33;;;;;;;;;;4383728;32;59144;-59
2023/06/25 00:41:26;;;;;;;3.47;2.28;;;;;;;;;;4394110;32;70428;-58
2023/06/25 00:44:13;;;;;;;3.65;2.35;;;;;;;;;;4383472;32;69503;-58
2023/06/25 00:47:01;;;;;;;3.80;2.20;;;;;;;;;;4372188;32;67571;-58
2023/06/25 00:49:47;;;;;;;4.18;2.60;;;;;;;;;;4383093;32;70817;-58
2023/06/25 00:52:34;;;;;;;3.10;1.95;;;;;;;;;;4394153;32;65733;-59
2023/06/25 00:55:21;;;;;;;4.30;2.55;;;;;;;;;;4393807;32;68348;-58
2023/06/25 00:58:08;;;;;;;3.05;1.70;;;;;;;;;;4372827;32;67335;-59
2023/06/25 01:00:57;;;;;;;3.87;2.25;;;;;;;;;;4382377;32;71433;-59
2023/06/25 01:03:54;;;;;;;3.05;2.20;;;;;;;;;;4382777;32;65938;-58
2023/06/25 01:06:41;;;;;;;;;;;;;;;;;;4372742;32;67705;-58
2023/06/25 01:09:28;;;;;;;3.90;2.30;;;;;;;;;;4362133;32;60245;-61
2023/06/25 01:12:15;;;;;;;3.67;2.42;;;;;;;;;;4372353;32;71147;-60
2023/06/25 01:15:03;;;;;;;3.10;2.22;;;;;;;;;;4378574;32;70126;-58
2023/06/25 01:17:49;;;;;;;2.45;1.65;;;;;;;;;;4386719;32;66902;-59
2023/06/25 01:20:38;;;;;;;2.20;1.90;;;;;;;;;;4362696;32;60079;-59
2023/06/25 01:23:24;;;;;;;3.90;2.15;;;;;;;;;;4362263;32;70713;-58
2023/06/25 01:26:11;;;;;;;4.28;2.00;;;;;;;;;;4362341;32;69169;-59
2023/06/25 01:28:58;;;;;;;2.70;2.03;;;;;;;;;;4362140;32;67645;-59
2023/06/25 01:31:45;;;;;;;2.97;2.10;;;;;;;;;;4372090;32;71381;-59
2023/06/25 01:34:32;;;;;;;3.03;2.40;;;;;;;;;;4372698;32;65933;-58
2023/06/25 01:37:19;;;;;;;3.30;2.50;;;;;;;;;;4383200;32;66706;-58
2023/06/25 01:40:09;;;;;;;2.83;1.73;;;;;;;;;;4361543;32;60629;-58
2023/06/25 01:42:56;;;;;;;4.40;2.10;;;;;;;;;;4372546;32;70745;-58
2023/06/25 01:45:43;;;;;;;;;;;;;;;;;;4361376;32;66896;-59
2023/06/25 01:48:31;;;;;;;3.72;2.60;;;;;;;;;;4383371;32;67429;-58
2023/06/25 01:51:18;;;;;;;4.07;2.72;;;;;;;;;;4383463;32;60206;-58
2023/06/25 01:54:04;;;;;;;3.47;2.03;;;;;;;;;;4382942;32;70322;-58
2023/06/25 01:56:51;;;;;;;;;;;;;;;;;;4382771;32;70517;-59
2023/06/25 01:59:38;;;;;;;3.62;2.30;;;;;;;;;;4382973;32;67090;-58
2023/06/25 02:02:24;;;;;;;4.10;2.08;;;;;;;;;;4371882;32;70850;-57
2023/06/25 02:05:11;;;;;;;3.72;2.05;;;;;;;;;;4371820;32;67078;-59
2023/06/25 02:07:58;;;;;;;2.53;1.87;;;;;;;;;;4382620;32;68533;-58
2023/06/25 02:10:45;;;;;;;3.33;2.05;;;;;;;;;;4382773;32;67548;-58
2023/06/25 02:13:31;;;;;;;3.12;2.30;;;;;;;;;;4372049;32;70713;-58
2023/06/25 02:16:18;;;;;;;3.50;2.25;;;;;;;;;;4382934;32;64948;-58
2023/06/25 02:19:05;;;;;;;2.53;1.90;;;;;;;;;;4361241;32;68002;-58
2023/06/25 02:21:53;;;;;;;3.35;2.20;;;;;;;;;;4372465;32;59284;-59
2023/06/25 02:24:39;;;;;;;3.97;2.55;;;;;;;;;;4382631;32;69433;-59
2023/06/25 02:27:26;;;;;;;3.70;2.50;;;;;;;;;;4360408;32;67736;-58
2023/06/25 02:30:12;;;;;;;;;;;;;;;;;;4372481;32;67495;-59
2023/06/25 02:32:58;;;;;;;3.30;2.40;;;;;;;;;;4364662;32;59644;-59
2023/06/25 02:35:46;;;;;;;3.80;2.30;;;;;;;;;;4372352;32;70616;-59
2023/06/25 02:38:32;;;;;;;4.03;2.40;;;;;;;;;;4371933;32;69235;-59
2023/06/25 02:41:19;;;;;;;3.40;2.47;;;;;;;;;;4371386;32;68317;-59
2023/06/25 02:44:06;;;;;;;4.12;2.50;;;;;;;;;;4383430;32;71959;-58
2023/06/25 02:46:54;;;;;;;2.85;1.98;;;;;;;;;;4372146;32;66217;-58
2023/06/25 02:49:41;;;;;;;3.40;2.40;;;;;;;;;;4360378;32;68207;-58
2023/06/25 02:52:28;;;;;;;4.15;2.60;;;;;;;;;;4382543;32;59282;-59
2023/06/25 02:55:14;;;;;;;3.65;2.28;;;;;;;;;;4382229;32;70434;-58
2023/06/25 02:58:02;;;;;;;4.47;2.65;;;;;;;;;;4371859;32;65968;-57
2023/06/25 03:00:48;;;;;;;3.03;2.17;;;;;;;;;;4373878;32;66676;-59
2023/06/25 03:03:36;;;;;;;3.15;2.20;;;;;;;;;;4361573;32;60415;-59
2023/06/25 03:06:22;;;;;;;3.05;2.53;;;;;;;;;;4371520;32;70535;-58
2023/06/25 03:09:10;;;;;;;3.40;2.47;;;;;;;;;;4360785;32;68916;-58
2023/06/25 03:11:56;;;;;;;3.37;2.47;;;;;;;;;;4360774;32;66905;-58
2023/06/25 03:14:44;;;;;;;3.28;2.53;;;;;;;;;;4371550;32;71663;-58
2023/06/25 03:17:31;;;;;;;2.97;2.00;;;;;;;;;;4382099;32;65864;-58
2023/06/25 03:20:18;;;;;;;3.03;2.05;;;;;;;;;;4371754;32;67488;-58
2023/06/25 03:23:05;;;;;;;;;;;;;;;;;;4361802;32;67696;-57
2023/06/25 03:25:52;;;;;;;4.60;2.20;;;;;;;;;;4370742;32;72510;-58
2023/06/25 03:28:40;;;;;;;3.35;2.15;;;;;;;;;;4371526;32;65866;-58
2023/06/25 03:31:26;;;;;;;3.70;2.40;;;;;;;;;;4371409;32;67327;-59
2023/06/25 03:34:14;;;;;;;5.07;2.75;;;;;;;;;;4371526;32;60382;-58
2023/06/25 03:37:01;;;;;;;2.80;2.00;;;;;;;;;;4381822;32;69604;-59
2023/06/25 03:39:47;;;;;;;;;;;;;;;;;;4371626;32;68426;-59
2023/06/25 03:42:34;;;;;;;3.28;2.50;;;;;;;;;;4381816;32;66894;-59
2023/06/25 03:45:21;;;;;;;2.75;1.83;;;;;;;;;;4381933;32;70637;-60
2023/06/25 03:48:08;;;;;;;3.95;1.73;;;;;;;;;;4371180;32;70505;-58
2023/06/25 03:50:56;;;;;;;4.10;2.35;;;;;;;;;;4371357;32;68401;-60
2023/06/25 03:53:43;;;;;;;2.95;1.90;;;;;;;;;;4360852;32;67895;-59
2023/06/25 03:56:29;;;;;;;3.55;2.40;;;;;;;;;;4381521;32;70679;-58
2023/06/25 03:59:16;;;;;;;5.07;2.25;;;;;;;;;;4359605;32;66814;-58
2023/06/25 04:02:04;;;;;;;3.85;2.35;;;;;;;;;;4360532;32;67743;-58
2023/06/25 04:04:51;;;;;;;2.87;1.87;;;;;;;;;;4341072;32;61915;-59
2023/06/25 04:07:37;;;;;;;5.18;2.50;;;;;;;;;;4340974;32;69586;-58
2023/06/25 04:10:25;;;;;;;3.97;2.42;;;;;;;;;;4351606;32;68288;-58
2023/06/25 04:13:11;;;;;;;4.22;2.92;;;;;;;;;;4351463;32;67247;-58
2023/06/25 04:15:58;;;;;;;3.72;2.22;;;;;;;;;;4361948;32;59130;-59
2023/06/25 04:18:45;;;;;;;2.65;1.77;;;;;;;;;;4351139;32;69462;-59
2023/06/25 04:21:32;;;;;;;3.50;2.60;;;;;;;;;;4351642;32;69260;-58
2023/06/25 04:24:18;;;;;;;;;;;;;;;;;;4351092;32;68045;-58
2023/06/25 04:27:06;;;;;;;3.83;2.78;;;;;;;;;;4351536;32;70883;-59
2023/06/25 04:29:52;;;;;;;3.60;2.65;;;;;;;;;;4351339;32;66071;-57
2023/06/25 04:32:39;;;;;;;4.60;3.22;;;;;;;;;;4351928;32;67386;-58
2023/06/25 04:35:26;;;;;;;;;;;;;;;;;;4355273;32;60266;-59
2023/06/25 04:38:13;;;;;;;4.00;2.62;;;;;;;;;;4340772;32;72191;-59
2023/06/25 04:41:00;;;;;;;;;;;;;;;;;;4341488;32;66183;-60
2023/06/25 04:43:47;;;;;;;4.05;2.80;;;;;;;;;;4340608;32;67747;-59
2023/06/25 04:46:33;;;;;;;3.80;2.90;;;;;;;;;;4354430;32;60135;-59
2023/06/25 04:49:22;;;;;;;4.03;2.95;;;;;;;;;;4332011;32;68119;-60
2023/06/25 04:52:17;;;;;;;5.55;2.58;;;;;;;;;;4353965;32;69246;-58
2023/06/25 04:55:04;;;;;;;4.40;3.10;;;;;;;;;;4344171;32;67814;-58
2023/06/25 04:57:51;;;;;;;3.75;2.83;;;;;;;;;;4343184;32;72751;-58
2023/06/25 05:00:38;;;;;;;3.12;2.40;;;;;;;;;;4332538;32;71273;-59
2023/06/25 05:03:24;;;;;;;4.43;3.33;;;;;;;;;;4363884;32;69587;-58
2023/06/25 05:06:11;;;;;;;;;;;;;;;;;;4373821;32;66364;-59
2023/06/25 05:08:57;;;;;;;4.18;2.87;;;;;;;;;;4384149;32;71128;-59
2023/06/25 05:11:57;;;;;;;4.25;2.80;;;;;;;;;;3847759;37;43813;-57
2023/06/25 05:14:44;;;;;;;6.65;3.20;;;;;;;;;;4410445;32;59163;-59
2023/06/25 05:17:30;;;;;;;;;;;;;;;;;;4388859;32;70659;-59
2023/06/25 05:20:18;;;;;;;6.53;3.45;;;;;;;;;;4411356;32;69719;-59
2023/06/25 05:23:08;;;;;;;7.53;3.12;;;;;;;;;;4399435;32;67667;-58
2023/06/25 05:25:55;;;;;;;5.00;2.70;;;;;;;;;;4399628;32;70775;-59
2023/06/25 05:28:41;;;;;;;4.25;2.75;;;;;;;;;;4399204;32;65159;-59
2023/06/25 05:31:29;;;;;;;3.83;2.80;;;;;;;;;;4409732;32;67155;-59
2023/06/25 05:34:16;;;;;;;3.60;2.58;;;;;;;;;;4399385;32;59039;-60
2023/06/25 05:37:03;;;;;;;3.10;2.15;;;;;;;;;;4409203;32;71851;-58
2023/06/25 05:39:49;;;;;;;;;;;;;;;;;;4398589;32;67247;-59
2023/06/25 05:42:37;;;;;;;4.43;2.40;;;;;;;;;;4410959;32;67184;-58
2023/06/25 05:45:23;;;;;;;;;;;;;;;;;;4399276;32;59159;-59
2023/06/25 05:48:09;;;;;;;3.85;2.45;;;;;;;;;;4410775;32;70065;-60
2023/06/25 05:50:56;;;;;;;;;;;;;;;;;;4410877;32;68284;-59
2023/06/25 05:53:44;;;;;;;3.60;2.42;;;;;;;;;;4410651;32;66854;-58
2023/06/25 05:56:31;;;;;;;3.35;2.60;;;;;;;;;;4398504;32;70949;-59
2023/06/25 05:59:18;;;;;;;3.60;2.58;;;;;;;;;;4398915;32;66097;-59
2023/06/25 06:02:07;;;;;;;4.37;2.70;;;;;;;;;;4387617;32;69304;-60
2023/06/25 06:04:55;;;;;;;5.10;3.12;;;;;;;;;;4409493;32;66583;-58
2023/06/25 06:07:41;;;;;;;;;;;;;;;;;;4387245;32;72003;-59
2023/06/25 06:10:28;;;;;;;3.67;2.40;;;;;;;;;;4408819;32;66193;-59
2023/06/25 06:13:14;;;;;;;;;;;;;;;;;;4398745;32;67630;-59
2023/06/25 06:16:01;;;;;;;3.97;2.80;;;;;;;;;;4409624;32;58605;-59
2023/06/25 06:18:48;;;;;;;5.07;2.55;;;;;;;;;;4387443;32;70458;-59
2023/06/25 06:21:35;;;;;;;3.15;2.10;;;;;;;;;;4406008;32;68566;-59
2023/06/25 06:24:22;;;;;;;;;;;;;;;;;;4388527;32;67494;-59
2023/06/25 06:27:08;;;;;;;3.90;2.78;;;;;;;;;;4398785;32;60752;-59
2023/06/25 06:29:55;;;;;;;3.97;2.60;;;;;;;;;;4388414;32;70545;-58
2023/06/25 06:32:42;;;;;;;;;;;;;;;;;;4399276;32;69719;-59
2023/06/25 06:35:28;;;;;;;3.42;2.35;;;;;;;;;;4393520;32;67813;-58
2023/06/25 06:38:15;;;;;;;3.12;2.53;;;;;;;;;;4400962;32;71594;-58
2023/06/25 06:41:02;;;;;;;4.35;3.10;;;;;;;;;;4376779;32;66920;-58
2023/06/25 06:43:48;;;;;;;3.10;2.30;;;;;;;;;;4398491;32;67750;-59
2023/06/25 06:46:35;;;;;;;;;;;;;;;;;;4388621;32;59183;-59
2023/06/25 06:49:22;;;;;;;5.50;2.83;;;;;;;;;;4398568;32;69383;-59
2023/06/25 06:52:09;;;;;;;3.12;2.33;;;;;;;;;;4387607;32;65819;-59
2023/06/25 06:54:56;;;;;;;4.53;3.12;;;;;;;;;;4376714;32;68057;-59
2023/06/25 06:57:42;;;;;;;;;;;;;;;;;;4377098;32;60722;-58
2023/06/25 07:00:30;;;;;;;4.18;2.97;;;;;;;;;;4399776;32;70017;-59
2023/06/25 07:03:16;;;;;;;;;;;;;;;;;;4376940;32;70117;-60
2023/06/25 07:06:03;;;;;;;4.15;3.10;;;;;;;;;;4387286;32;68513;-59
2023/06/25 07:08:49;;;;;;;3.33;2.22;;;;;;;;;;4387262;32;71770;-59
2023/06/25 07:11:36;;;;;;;;;;;;;;;;;;4387674;32;65161;-60
2023/06/25 07:14:22;;;;;;;3.67;2.75;;;;;;;;;;4398636;32;67711;-59
2023/06/25 07:17:05;;;;;;;4.28;3.10;;;;;;;;;;3847579;37;43449;-58
2023/06/25 07:19:52;;;;;;;4.70;3.50;;;;;;;;;;4399430;32;59209;-58
2023/06/25 07:22:40;;;;;;;4.72;3.50;;;;;;;;;;4387455;32;71014;-59
2023/06/25 07:25:26;;;;;;;5.87;3.78;;;;;;;;;;4399060;32;68563;-58
2023/06/25 07:28:13;;;;;;;4.37;2.92;;;;;;;;;;4398981;32;67478;-60
2023/06/25 07:31:00;;;;;;;;;;;;;;;;;;4387979;32;72160;-58
2023/06/25 07:33:46;;;;;;;5.10;3.83;;;;;;;;;;4387605;32;65942;-58
2023/06/25 07:36:33;;;;;;;;;;;;;;;;;;4388471;32;67278;-59
2023/06/25 07:39:29;;;;;;;3.92;2.37;;;;;;;;;;4409993;32;59742;-59
2023/06/25 07:42:16;;;;;;;5.60;4.05;;;;;;;;;;4399174;32;71336;-59
2023/06/25 07:45:04;;;;;;;5.18;3.17;;;;;;;;;;4409546;32;64946;-58
2023/06/25 07:47:50;;;;;;;5.03;3.80;;;;;;;;;;4409571;32;67289;-59
2023/06/25 07:50:37;;;;;;;5.55;3.37;;;;;;;;;;4377020;32;61150;-58
2023/06/25 07:53:22;;;;;;;6.45;3.60;;;;;;;;;;3847522;37;43824;-58
2023/06/25 07:56:09;;;;;;;5.18;3.95;;;;;;;;;;4388819;32;60174;-59
2023/06/25 07:58:56;;;;;;;4.87;3.58;;;;;;;;;;4377072;32;71241;-58
2023/06/25 08:01:44;;;;;;;;;;;;;;;;;;4399357;32;69591;-59
2023/06/25 08:04:31;;;;;;;6.28;4.45;;;;;;;;;;4410360;32;67943;-57
2023/06/25 08:07:17;;;;;;;5.35;3.87;;;;;;;;;;4399059;32;71588;-59
2023/06/25 08:10:05;;;;;;;5.55;4.50;;;;;;;;;;4399300;32;65970;-59
2023/06/25 08:12:53;;;;;;;5.95;4.22;;;;;;;;;;4398956;32;65932;-58
2023/06/25 08:15:40;;;;;;;4.82;3.20;;;;;;;;;;4388783;32;60161;-58
2023/06/25 08:18:27;;;;;;;;;;;;;;;;;;4410186;32;70766;-59
2023/06/25 08:21:14;;;;;;;4.80;3.37;;;;;;;;;;4410607;32;66541;-61
2023/06/25 08:24:01;;;;;;;5.75;3.90;;;;;;;;;;4387859;32;68137;-57
2023/06/25 08:26:48;;;;;;;6.55;4.00;;;;;;;;;;4388265;32;61258;-58
2023/06/25 08:29:34;;;;;;;5.32;3.58;;;;;;;;;;4388030;32;70790;-59
2023/06/25 08:32:21;;;;;;;5.12;4.10;;;;;;;;;;4399060;32;68223;-59
2023/06/25 08:35:08;;;;;;;5.30;3.87;;;;;;;;;;4391819;32;68078;-59
2023/06/25 08:37:54;;;;;;;5.10;3.10;;;;;;;;;;4411775;32;71828;-60
2023/06/25 08:40:41;;;;;;;;;;;;;;;;;;4388282;32;67459;-59
2023/06/25 08:43:28;;;;;;;6.65;4.30;;;;;;;;;;4409381;32;69416;-57
2023/06/25 08:46:15;;;;;;;6.37;3.65;;;;;;;;;;4398383;32;67558;-59
2023/06/25 08:49:05;;;;;;;5.57;3.22;;;;;;;;;;4398094;32;71794;-59
2023/06/25 08:51:56;;;;;;;5.50;4.05;;;;;;;;;;4387492;32;64913;-58
2023/06/25 08:54:45;;;;;;;5.30;4.50;;;;;;;;;;4397980;32;68146;-59
2023/06/25 08:57:32;;;;;;;6.50;4.28;;;;;;;;;;4398166;32;60786;-58
2023/06/25 09:00:19;;;;;;;5.95;4.20;;;;;;;;;;4387717;32;69954;-58
2023/06/25 09:03:07;;;;;;;5.40;3.50;;;;;;;;;;4383564;32;70060;-59
2023/06/25 09:05:55;;;;;;;6.07;4.18;;;;;;;;;;4366175;32;68367;-59
2023/06/25 09:08:42;;;;;;;6.43;4.22;;;;;;;;;;4388869;32;60034;-58
2023/06/25 09:11:32;;;;;;;5.32;3.83;;;;;;;;;;4377087;32;70124;-59
2023/06/25 09:14:19;;;;;;;5.30;3.75;;;;;;;;;;4387874;32;69133;-59
2023/06/25 09:17:06;;;;;;;5.82;4.20;;;;;;;;;;4388046;32;67618;-59
2023/06/25 09:19:53;;;;;;;6.03;3.87;;;;;;;;;;4387692;32;71771;-58
2023/06/25 09:22:50;;;;;;;;;;;;;;;;;;4387723;32;67057;-59
2023/06/25 09:25:36;;;;;;;4.50;3.85;;;;;;;;;;4376588;32;67871;-59
2023/06/25 09:28:24;;;;;;;4.85;3.42;;;;;;;;;;4377454;32;60422;-59
2023/06/25 09:31:16;;;;;;;6.10;3.87;;;;;;;;;;4398448;32;70425;-58
2023/06/25 09:34:07;;;;;;;5.25;3.67;;;;;;;;;;4387885;32;64995;-59
2023/06/25 09:36:53;;;;;;;7.00;3.70;;;;;;;;;;4387331;32;67189;-59
2023/06/25 09:39:41;;;;;;;5.72;4.03;;;;;;;;;;4377900;32;59118;-58
2023/06/25 09:42:28;;;;;;;5.05;3.83;;;;;;;;;;4377136;32;69664;-58
2023/06/25 09:45:16;;;;;;;5.35;4.05;;;;;;;;;;4377327;32;69162;-59
2023/06/25 09:48:04;;;;;;;6.00;4.75;;;;;;;;;;4377448;32;66697;-58
2023/06/25 09:50:53;;;;;;;5.03;3.97;;;;;;;;;;4377093;32;72019;-60
2023/06/25 09:53:44;;;;;;;4.93;3.60;;;;;;;;;;4387968;32;65763;-59
2023/06/25 09:56:34;;;;;;;5.45;3.80;;;;;;;;;;4387934;32;66605;-59
2023/06/25 09:59:22;;;;;;;6.32;5.00;;;;;;;;;;4387450;32;67700;-59
2023/06/25 10:02:09;;;;;;;6.57;4.62;;;;;;;;;;4376780;32;71726;-58
2023/06/25 10:04:55;;;;;;;7.47;4.47;;;;;;;;;;4387497;32;65798;-60
2023/06/25 10:07:43;;;;;;;;;;;;;;;;;;4376538;32;67247;-58
2023/06/25 10:10:31;;;;;;;5.60;4.35;;;;;;;;;;4365926;32;60171;-59
2023/06/25 10:13:18;;;;;;;6.60;4.05;;;;;;;;;;4387174;32;70712;-59
2023/06/25 10:16:04;;;;;;;5.82;4.45;;;;;;;;;;4374662;32;69928;-60
2023/06/25 10:18:54;;;;;;;5.32;4.10;;;;;;;;;;4376506;32;66657;-57
2023/06/25 10:21:41;;;;;;;4.97;4.00;;;;;;;;;;4387571;32;59123;-59
2023/06/25 10:24:38;;;;;;;5.60;3.83;;;;;;;;;;4398951;32;69508;-58
2023/06/25 10:27:25;;;;;;;6.20;4.55;;;;;;;;;;4397613;32;69219;-59
2023/06/25 10:30:16;;;;;;;5.25;3.72;;;;;;;;;;4387067;32;67847;-59
2023/06/25 10:33:04;;;;;;;5.62;4.30;;;;;;;;;;4386490;32;72133;-59
2023/06/25 10:35:55;;;;;;;6.22;4.57;;;;;;;;;;4383578;32;65916;-59
2023/06/25 10:38:43;;;;;;;7.07;4.30;;;;;;;;;;4387638;32;67509;-58
2023/06/25 10:41:30;;;;;;;;;;;;;;;;;;4387995;32;59129;-59
2023/06/25 10:44:17;;;;;;;6.25;4.72;;;;;;;;;;4387116;32;69908;-59
2023/06/25 10:47:07;;;;;;;;;;;;;;;;;;4375920;32;66311;-58
2023/06/25 10:49:54;;;;;;;6.70;4.62;;;;;;;;;;4376524;32;67319;-59
2023/06/25 10:52:41;;;;;;;6.07;3.87;;;;;;;;;;4375219;32;59909;-59
2023/06/25 10:55:29;;;;;;;6.37;4.50;;;;;;;;;;4375408;32;69290;-58
2023/06/25 10:58:21;;;;;;;5.35;4.07;;;;;;;;;;4397555;32;69240;-59
2023/06/25 11:01:08;;;;;;;5.87;4.22;;;;;;;;;;4376071;32;67804;-60
2023/06/25 11:03:55;;;;;;;8.63;5.00;;;;;;;;;;4386478;32;71717;-58
2023/06/25 11:06:41;;;;;;;7.60;4.97;;;;;;;;;;4386792;32;66278;-58
2023/06/25 11:09:28;;;;;;;5.70;4.28;;;;;;;;;;4375721;32;67446;-59
2023/06/25 11:12:15;;;;;;;7.10;5.22;;;;;;;;;;4375646;32;68215;-60
2023/06/25 11:15:02;;;;;;;8.02;5.20;;;;;;;;;;4397265;32;71743;-58
2023/06/25 11:17:52;;;;;;;6.43;4.43;;;;;;;;;;4375147;32;64911;-60
2023/06/25 11:20:44;;;;;;;6.40;4.85;;;;;;;;;;4397097;32;67426;-59
2023/06/25 11:23:31;;;;;;;7.22;3.97;;;;;;;;;;4376091;32;59002;-59
2023/06/25 11:26:17;;;;;;;;;;;;;;;;;;4386537;32;70707;-58
2023/06/25 11:29:08;;;;;;;6.72;4.05;;;;;;;;;;4397439;32;69354;-59
2023/06/25 11:31:55;;;;;;;7.53;4.53;;;;;;;;;;4375629;32;67418;-59
2023/06/25 11:34:47;;;;;;;;;;;;;;;;;;4387236;32;71462;-58
2023/06/25 11:37:44;;;;;;;7.55;5.55;;;;;;;;;;4375795;32;69277;-59
2023/06/25 11:40:31;;;;;;;;;;;;;;;;;;4375915;32;69789;-58
2023/06/25 11:43:25;;;;;;;6.25;5.00;;;;;;;;;;4375818;32;67536;-59
2023/06/25 11:46:11;;;;;;;7.97;4.87;;;;;;;;;;4375469;32;70879;-59
2023/06/25 11:48:58;;;;;;;3.75;2.92;;;;;;;;;;4386601;32;65799;-60
2023/06/25 11:51:45;;;;;;;6.93;5.00;;;;;;;;;;4396745;32;66788;-59
2023/06/25 11:54:32;;;;;;;6.78;4.55;;;;;;;;;;4375679;32;59220;-59
2023/06/25 11:57:18;;;;;;;;;;;;;;;;;;4386373;32;70486;-57
2023/06/25 12:00:06;;;;;;;6.93;5.23;;;;;;;;;;4386310;32;69413;-59
2023/06/25 12:02:54;;;;;;;6.10;3.90;;;;;;;;;;4386451;32;67648;-58
2023/06/25 12:05:40;;;;;;;;;;;;;;;;;;4375264;32;60665;-59
2023/06/25 12:08:27;;;;;;;5.28;2.97;;;;;;;;;;4364365;32;67485;-59
2023/06/25 12:11:13;;;;;;;7.15;4.30;;;;;;;;;;4386057;32;68424;-58
2023/06/25 12:14:00;;;;;;;7.87;4.70;;;;;;;;;;4386030;32;67539;-58
2023/06/25 12:16:47;;;;;;;;;;;;;;;;;;4375558;32;70889;-59
2023/06/25 12:19:34;;;;;;;6.85;4.28;;;;;;;;;;4386127;32;66700;-59
2023/06/25 12:22:20;;;;;;;;;;;;;;;;;;4375737;32;67611;-59
2023/06/25 12:25:07;;;;;;;5.72;3.87;;;;;;;;;;4397061;32;58764;-60
2023/06/25 12:27:54;;;;;;;;;;;;;;;;;;4375587;32;71767;-59
2023/06/25 12:30:41;;;;;;;7.37;4.10;;;;;;;;;;4396828;32;65651;-58
2023/06/25 12:33:27;;;;;;;;;;;;;;;;;;4385430;32;68407;-59
2023/06/25 12:36:14;;;;;;;6.03;4.07;;;;;;;;;;4388455;32;59508;-59
2023/06/25 12:39:01;;;;;;;5.97;3.80;;;;;;;;;;4387260;32;69686;-59
2023/06/25 12:41:48;;;;;;;7.15;4.15;;;;;;;;;;4388332;32;69308;-59
2023/06/25 12:44:35;;;;;;;4.53;3.25;;;;;;;;;;4388265;32;67817;-59
2023/06/25 12:47:21;;;;;;;5.45;3.92;;;;;;;;;;4388679;32;71676;-59
2023/06/25 12:50:10;;;;;;;5.47;3.78;;;;;;;;;;4387505;32;69655;-59
2023/06/25 12:52:57;;;;;;;5.95;3.97;;;;;;;;;;4377304;32;69007;-58
2023/06/25 12:55:46;;;;;;;6.68;4.40;;;;;;;;;;4377505;32;66826;-58
2023/06/25 12:58:33;;;;;;;5.55;4.00;;;;;;;;;;4376779;32;72310;-59
2023/06/25 13:01:19;;;;;;;;;;;;;;;;;;4388708;32;66074;-58
2023/06/25 13:04:06;;;;;;;5.62;3.50;;;;;;;;;;4376860;32;68191;-59
2023/06/25 13:06:53;;;;;;;6.32;3.58;;;;;;;;;;4388304;32;59437;-58
2023/06/25 13:09:40;;;;;;;;;;;;;;;;;;4388445;32;70578;-58
2023/06/25 13:12:26;;;;;;;5.62;3.90;;;;;;;;;;4398724;32;68795;-59
2023/06/25 13:15:13;;;;;;;4.50;3.37;;;;;;;;;;4387863;32;67034;-58
2023/06/25 13:18:00;;;;;;;6.25;4.18;;;;;;;;;;4388313;32;58974;-59
2023/06/25 13:20:47;;;;;;;5.18;4.07;;;;;;;;;;4387936;32;70787;-59
2023/06/25 13:23:33;;;;;;;;;;;;;;;;;;4366244;32;68815;-58
2023/06/25 13:26:20;;;;;;;5.30;4.18;;;;;;;;;;4398712;32;67615;-59
2023/06/25 13:29:06;;;;;;;5.37;3.80;;;;;;;;;;4377006;32;70689;-60
2023/06/25 13:31:53;;;;;;;6.75;3.80;;;;;;;;;;4397994;32;65932;-58
2023/06/25 13:34:40;;;;;;;5.43;4.05;;;;;;;;;;4387925;32;66972;-58
2023/06/25 13:37:27;;;;;;;4.43;3.00;;;;;;;;;;4398965;32;59952;-59
2023/06/25 13:40:13;;;;;;;;;;;;;;;;;;4388846;32;71679;-59
2023/06/25 13:43:01;;;;;;;5.07;3.83;;;;;;;;;;4387854;32;67067;-59
2023/06/25 13:45:47;;;;;;;5.60;3.67;;;;;;;;;;4365952;32;69171;-59
2023/06/25 13:48:34;;;;;;;7.53;3.80;;;;;;;;;;4398773;32;59111;-59
2023/06/25 13:51:20;;;;;;;;;;;;;;;;;;4388136;32;69535;-60
2023/06/25 13:54:07;;;;;;;4.12;3.00;;;;;;;;;;4399177;32;68753;-59
2023/06/25 13:56:54;;;;;;;;;;;;;;;;;;4387980;32;67750;-58
2023/06/25 13:59:41;;;;;;;6.18;3.97;;;;;;;;;;4400335;32;71684;-58
2023/06/25 14:02:28;;;;;;;5.45;3.65;;;;;;;;;;4388063;32;65791;-58
2023/06/25 14:05:15;;;;;;;4.90;3.47;;;;;;;;;;4387279;32;69324;-58
2023/06/25 14:08:02;;;;;;;;;;;;;;;;;;4387850;32;67574;-58
2023/06/25 14:10:49;;;;;;;4.90;3.45;;;;;;;;;;4365416;32;70780;-58
2023/06/25 14:13:36;;;;;;;5.20;3.90;;;;;;;;;;4387232;32;65169;-59
2023/06/25 14:16:25;;;;;;;5.32;3.80;;;;;;;;;;4376869;32;68844;-59
2023/06/25 14:19:12;;;;;;;4.85;3.80;;;;;;;;;;4377222;32;58936;-59
2023/06/25 14:21:59;;;;;;;5.45;3.95;;;;;;;;;;4375959;32;71440;-59
2023/06/25 14:24:46;;;;;;;4.62;3.20;;;;;;;;;;4397913;32;69328;-59
2023/06/25 14:27:33;;;;;;;5.30;3.47;;;;;;;;;;4387271;32;66695;-59
2023/06/25 14:30:20;;;;;;;6.05;4.00;;;;;;;;;;4376603;32;59189;-60
2023/06/25 14:33:07;;;;;;;5.20;3.65;;;;;;;;;;4397878;32;70607;-59
2023/06/25 14:35:54;;;;;;;4.55;3.08;;;;;;;;;;4381700;32;69171;-60
2023/06/25 14:38:42;;;;;;;6.35;3.65;;;;;;;;;;4387489;32;67813;-58
2023/06/25 14:41:29;;;;;;;6.40;3.53;;;;;;;;;;4376330;32;71542;-59
2023/06/25 14:44:17;;;;;;;6.43;3.90;;;;;;;;;;4387101;32;64980;-58
2023/06/25 14:47:04;;;;;;;4.93;3.67;;;;;;;;;;4386038;32;68463;-59
2023/06/25 14:49:51;;;;;;;5.87;3.50;;;;;;;;;;4387088;32;59279;-59
2023/06/25 14:52:38;;;;;;;6.62;3.78;;;;;;;;;;4386186;32;69603;-58
2023/06/25 14:55:25;;;;;;;4.68;3.28;;;;;;;;;;4375588;32;66833;-58
2023/06/25 14:58:11;;;;;;;6.80;3.90;;;;;;;;;;4386818;32;68152;-59
2023/06/25 15:00:58;;;;;;;4.60;3.40;;;;;;;;;;4397003;32;60045;-59
2023/06/25 15:03:45;;;;;;;5.68;3.97;;;;;;;;;;4375908;32;70409;-59
2023/06/25 15:06:32;;;;;;;5.57;3.60;;;;;;;;;;4376153;32;68255;-58
2023/06/25 15:09:19;;;;;;;6.00;3.35;;;;;;;;;;4396739;32;68258;-59
2023/06/25 15:12:09;;;;;;;4.55;3.50;;;;;;;;;;4376092;32;71380;-59
2023/06/25 15:14:55;;;;;;;;;;;;;;;;;;4376461;32;66022;-59
2023/06/25 15:17:42;;;;;;;5.93;3.60;;;;;;;;;;4398578;32;68503;-59
2023/06/25 15:20:29;;;;;;;7.15;3.97;;;;;;;;;;4387889;32;67678;-58
2023/06/25 15:23:16;;;;;;;6.90;4.07;;;;;;;;;;4386637;32;70646;-59
2023/06/25 15:26:03;;;;;;;11.75;4.00;;;;;;;;;;4386630;32;66006;-58
2023/06/25 15:28:49;;;;;;;6.28;4.30;;;;;;;;;;4375821;32;67597;-58
2023/06/25 15:31:36;;;;;;;;;;;;;;;;;;4375572;32;60750;-59
2023/06/25 15:34:23;;;;;;;7.85;4.10;;;;;;;;;;4374944;32;70659;-59
2023/06/25 15:37:10;;;;;;;6.53;4.35;;;;;;;;;;4375522;32;68232;-59
2023/06/25 15:39:57;;;;;;;6.37;4.10;;;;;;;;;;4397151;32;67881;-58
2023/06/25 15:42:43;;;;;;;;;;;;;;;;;;4386290;32;60707;-58
2023/06/25 15:45:30;;;;;;;6.78;3.90;;;;;;;;;;4396559;32;70271;-59
2023/06/25 15:48:17;;;;;;;5.97;4.20;;;;;;;;;;4364456;32;69005;-58
2023/06/25 15:51:03;;;;;;;7.37;4.40;;;;;;;;;;4364050;32;68365;-59
2023/06/25 15:53:50;;;;;;;;;;;;;;;;;;4375523;32;71640;-59
2023/06/25 15:56:37;;;;;;;6.35;4.10;;;;;;;;;;4398398;32;66282;-59
2023/06/25 15:59:23;;;;;;;7.22;4.22;;;;;;;;;;4386293;32;66917;-59
2023/06/25 16:02:10;;;;;;;5.85;4.00;;;;;;;;;;4364557;32;60775;-58
2023/06/25 16:04:57;;;;;;;9.23;4.82;;;;;;;;;;4375384;32;70284;-59
2023/06/25 16:07:44;;;;;;;7.43;4.22;;;;;;;;;;4386157;32;66018;-59
2023/06/25 16:10:30;;;;;;;6.35;4.22;;;;;;;;;;4396718;32;68050;-58
2023/06/25 16:13:17;;;;;;;;;;;;;;;;;;4397913;32;59383;-59
2023/06/25 16:16:04;;;;;;;6.35;4.05;;;;;;;;;;4400866;32;69283;-59
2023/06/25 16:18:51;;;;;;;7.03;4.30;;;;;;;;;;4388421;32;68298;-59
2023/06/25 16:21:38;;;;;;;5.95;3.60;;;;;;;;;;4378442;32;66608;-59
2023/06/25 16:24:25;;;;;;;7.45;4.37;;;;;;;;;;4388462;32;70760;-59
2023/06/25 16:27:12;;;;;;;6.45;3.78;;;;;;;;;;4377685;32;66838;-58
2023/06/25 16:30:03;;;;;;;6.87;4.60;;;;;;;;;;4388917;32;66960;-59
2023/06/25 16:32:51;;;;;;;6.72;4.30;;;;;;;;;;4389232;32;67644;-59
2023/06/25 16:35:38;;;;;;;6.95;4.30;;;;;;;;;;4392430;32;71387;-59
2023/06/25 16:38:25;;;;;;;6.22;3.92;;;;;;;;;;4366941;32;66967;-58
2023/06/25 16:41:12;;;;;;;6.43;3.62;;;;;;;;;;4388516;32;67199;-58
2023/06/25 16:43:59;;;;;;;6.68;4.05;;;;;;;;;;4377608;32;60785;-59
2023/06/25 16:46:45;;;;;;;7.10;3.80;;;;;;;;;;4377618;32;70412;-59
2023/06/25 16:49:36;;;;;;;5.53;3.80;;;;;;;;;;4377680;32;69145;-58
2023/06/25 16:52:22;;;;;;;7.70;3.78;;;;;;;;;;4376670;32;67332;-58
2023/06/25 16:55:10;;;;;;;6.12;3.97;;;;;;;;;;4399001;32;71766;-58
2023/06/25 16:57:56;;;;;;;6.50;3.40;;;;;;;;;;4377593;32;70444;-59
2023/06/25 17:00:43;;;;;;;;;;;;;;;;;;4387981;32;70091;-59
2023/06/25 17:03:31;;;;;;;6.62;4.65;;;;;;;;;;4377756;32;66796;-59